Time;durP1;ratioP1;P1;durP2;ratioP2;P2;SDS_P1;SDS_P2;PMS_P1;PMS_P2;Temp;Humidity;BMP_temperature;BMP_pressure;BME280_temperature;BME280_humidity;BME280_pressure;Samples;Min_cycle;Max_cycle;Signal;HPM_P1;HPM_P2
2022/04/29 00:00:56;;;;;;;2.85;2.65;;;23.40;33.80;;;;;;5042544;28;20045;-57
2022/04/29 00:03:24;;;;;;;3.90;3.05;;;23.40;33.90;;;;;;5042026;28;20040;-59
2022/04/29 00:05:54;;;;;;;3.97;3.20;;;23.30;33.90;;;;;;5041361;28;20087;-59
2022/04/29 00:08:22;;;;;;;6.15;3.53;;;23.30;34.60;;;;;;5040683;28;20091;-59
2022/04/29 00:10:49;;;;;;;3.60;2.30;;;23.30;34.20;;;;;;5041719;28;20056;-58
2022/04/29 00:13:17;;;;;;;5.18;3.08;;;23.20;34.30;;;;;;5041504;28;20049;-60
2022/04/29 00:15:44;;;;;;;6.70;2.63;;;23.20;34.30;;;;;;5043665;28;20067;-59
2022/04/29 00:18:12;;;;;;;5.40;3.22;;;23.10;34.40;;;;;;5039971;28;20053;-59
2022/04/29 00:20:39;;;;;;;6.60;2.67;;;23.10;34.60;;;;;;5041052;28;20057;-56
2022/04/29 00:23:07;;;;;;;3.05;2.80;;;23.10;34.70;;;;;;5042809;28;20111;-58
2022/04/29 00:25:34;;;;;;;3.47;2.65;;;23.10;34.60;;;;;;5043248;28;20074;-65
2022/04/29 00:28:03;;;;;;;5.93;3.88;;;23.10;34.80;;;;;;5040186;28;20049;-65
2022/04/29 00:30:30;;;;;;;4.65;3.25;;;23.00;34.70;;;;;;5041030;28;20044;-64
2022/04/29 00:32:57;;;;;;;5.00;4.50;;;23.00;34.80;;;;;;5039267;28;20122;-65
2022/04/29 00:35:26;;;;;;;4.25;3.70;;;23.00;34.80;;;;;;5039261;28;20037;-66
2022/04/29 00:37:55;;;;;;;6.50;3.60;;;23.00;34.90;;;;;;5021788;28;20146;-65
2022/04/29 00:40:25;;;;;;;3.72;3.20;;;23.00;34.90;;;;;;5038683;28;20624;-65
2022/04/29 00:42:52;;;;;;;3.97;3.60;;;22.90;34.90;;;;;;5042503;28;20129;-64
2022/04/29 00:45:20;;;;;;;4.90;3.53;;;22.90;35.00;;;;;;5043920;28;20049;-65
2022/04/29 00:47:49;;;;;;;4.72;4.25;;;22.90;35.00;;;;;;5041811;28;20167;-66
2022/04/29 00:50:18;;;;;;;5.15;3.65;;;22.80;35.00;;;;;;5041846;28;20041;-65
2022/04/29 00:52:50;;;;;;;5.55;3.47;;;22.80;35.00;;;;;;5014722;28;20044;-65
2022/04/29 00:55:18;;;;;;;5.82;3.30;;;22.80;35.00;;;;;;5022912;28;20626;-65
2022/04/29 00:57:48;;;;;;;10.65;5.50;;;22.80;35.10;;;;;;5021910;28;20055;-65
2022/04/29 01:00:18;;;;;;;5.97;3.50;;;22.70;35.00;;;;;;5039053;28;20124;-65
2022/04/29 01:02:51;;;;;;;8.13;3.88;;;22.70;35.10;;;;;;5036603;28;20036;-65
2022/04/29 01:05:19;;;;;;;5.63;4.10;;;22.70;35.20;;;;;;5024045;28;20045;-65
2022/04/29 01:07:48;;;;;;;7.25;3.85;;;22.70;35.20;;;;;;5021007;28;20037;-66
2022/04/29 01:10:20;;;;;;;5.07;3.72;;;22.70;35.20;;;;;;5042405;28;20048;-65
2022/04/29 01:13:04;;;;;;;5.95;4.68;;;22.70;35.10;;;;;;5043970;28;20045;-65
2022/04/29 01:15:33;;;;;;;5.95;3.75;;;22.70;35.10;;;;;;5008944;28;20045;-65
2022/04/29 01:18:02;;;;;;;6.63;4.93;;;22.60;35.20;;;;;;5040779;28;20122;-64
2022/04/29 01:20:31;;;;;;;11.45;4.90;;;22.60;35.20;;;;;;5014481;28;20053;-61
2022/04/29 01:23:04;;;;;;;10.27;6.07;;;22.50;35.10;;;;;;5042282;28;20052;-64
2022/04/29 01:25:31;;;;;;;6.53;4.50;;;22.50;35.10;;;;;;5024639;28;20140;-64
2022/04/29 01:27:59;;;;;;;9.25;5.00;;;22.50;35.20;;;;;;5024993;28;20044;-64
2022/04/29 01:30:26;;;;;;;6.78;4.10;;;22.50;35.20;;;;;;5028283;28;20053;-64
2022/04/29 01:32:54;;;;;;;6.22;4.97;;;22.50;35.30;;;;;;5023528;28;20485;-63
2022/04/29 01:35:21;;;;;;;9.10;4.97;;;22.40;35.30;;;;;;5042223;28;20033;-63
2022/04/29 01:37:49;;;;;;;5.35;4.10;;;22.50;35.30;;;;;;5011665;28;20041;-63
2022/04/29 01:40:17;;;;;;;6.75;5.22;;;22.40;35.30;;;;;;5042169;28;20563;-63
2022/04/29 01:42:45;;;;;;;5.43;4.15;;;22.40;35.30;;;;;;5025418;28;20041;-63
2022/04/29 01:45:13;;;;;;;6.90;4.10;;;22.40;35.40;;;;;;5038656;28;20041;-63
2022/04/29 01:48:04;;;;;;;5.53;5.03;;;22.40;35.40;;;;;;5042004;28;20065;-64
2022/04/29 01:51:06;;;;;;;8.32;5.30;;;22.30;35.40;;;;;;5024151;28;20060;-64
2022/04/29 01:53:33;;;;;;;7.25;5.00;;;22.30;35.50;;;;;;5023736;28;20051;-63
2022/04/29 01:56:02;;;;;;;6.90;4.60;;;22.30;35.50;;;;;;5042110;28;20049;-63
2022/04/29 01:58:29;;;;;;;8.48;5.68;;;22.30;35.50;;;;;;5024236;28;20130;-64
2022/04/29 02:00:56;;;;;;;9.48;5.30;;;22.30;35.50;;;;;;5026697;28;20049;-64
2022/04/29 02:03:23;;;;;;;13.10;5.13;;;22.20;35.60;;;;;;5029342;28;20053;-64
2022/04/29 02:05:51;;;;;;;7.95;4.32;;;22.30;35.70;;;;;;5046015;28;20195;-64
2022/04/29 02:08:18;;;;;;;7.60;4.53;;;22.30;35.70;;;;;;5020131;28;20041;-64
2022/04/29 02:10:46;;;;;;;5.40;4.32;;;22.20;35.70;;;;;;5023642;28;20502;-65
2022/04/29 02:13:20;;;;;;;11.55;5.50;;;22.20;36.30;;;;;;5023249;28;20072;-63
2022/04/29 02:16:10;;;;;;;6.80;4.43;;;22.20;35.70;;;;;;5018146;28;20061;-65
2022/04/29 02:18:37;;;;;;;10.30;4.93;;;22.10;35.70;;;;;;5008342;28;20061;-64
2022/04/29 02:21:05;;;;;;;12.48;5.03;;;22.10;35.70;;;;;;5005974;28;20135;-63
2022/04/29 02:23:32;;;;;;;7.63;5.07;;;22.10;35.60;;;;;;5005370;28;20059;-61
2022/04/29 02:25:59;;;;;;;5.72;5.07;;;22.10;35.60;;;;;;5006240;28;20049;-63
2022/04/29 02:28:28;;;;;;;13.85;4.88;;;22.10;35.70;;;;;;5006524;28;20884;-63
2022/04/29 02:30:55;;;;;;;6.43;5.32;;;22.10;35.60;;;;;;5006517;28;20061;-63
2022/04/29 02:33:23;;;;;;;9.60;3.95;;;22.10;35.70;;;;;;5022867;28;20049;-62
2022/04/29 02:35:50;;;;;;;8.32;5.68;;;22.10;35.70;;;;;;5005614;28;20100;-61
2022/04/29 02:38:18;;;;;;;9.07;5.00;;;22.10;35.70;;;;;;5022419;28;20077;-63
2022/04/29 02:40:45;;;;;;;7.90;5.35;;;22.10;35.90;;;;;;5022126;28;20053;-62
2022/04/29 02:43:12;;;;;;;6.03;4.85;;;22.10;35.90;;;;;;5022133;28;21045;-62
2022/04/29 02:45:41;;;;;;;9.02;5.45;;;22.10;35.90;;;;;;5007711;28;20852;-61
2022/04/29 02:48:09;;;;;;;7.57;5.30;;;22.10;35.90;;;;;;5005830;28;20058;-62
2022/04/29 02:50:36;;;;;;;8.45;6.13;;;22.00;35.90;;;;;;5001680;28;20052;-62
2022/04/29 02:53:05;;;;;;;7.03;4.25;;;22.00;35.90;;;;;;5027892;28;20041;-61
2022/04/29 02:55:32;;;;;;;9.45;4.80;;;22.00;35.90;;;;;;5044608;28;20434;-64
2022/04/29 02:58:08;;;;;;;10.23;6.40;;;22.00;35.90;;;;;;5044526;28;20099;-64
2022/04/29 03:00:35;;;;;;;9.23;5.30;;;22.00;35.80;;;;;;5028355;28;20040;-63
2022/04/29 03:03:04;;;;;;;10.05;5.70;;;22.00;35.80;;;;;;5026478;28;20132;-62
2022/04/29 03:05:31;;;;;;;9.48;6.18;;;22.00;35.80;;;;;;5017467;28;20061;-62
2022/04/29 03:07:58;;;;;;;7.57;4.63;;;22.00;35.90;;;;;;5044652;28;20728;-62
2022/04/29 03:10:25;;;;;;;8.35;6.53;;;22.00;35.90;;;;;;5026605;28;20337;-62
2022/04/29 03:12:53;;;;;;;5.43;4.78;;;22.00;35.80;;;;;;5025674;28;20045;-62
2022/04/29 03:15:28;;;;;;;6.57;5.30;;;22.00;35.90;;;;;;5027887;28;20111;-62
2022/04/29 03:20:48;;;;;;;6.50;4.80;;;22.00;35.90;;;;;;5025820;28;20052;-62
2022/04/29 03:23:17;;;;;;;6.25;5.25;;;22.00;35.90;;;;;;5018490;28;20505;-62
2022/04/29 03:25:52;;;;;;;6.07;4.73;;;21.90;35.80;;;;;;5025210;28;20505;-61
2022/04/29 03:28:19;;;;;;;10.23;5.82;;;21.90;35.90;;;;;;5024676;28;20558;-62
2022/04/29 03:30:47;;;;;;;9.10;6.35;;;21.90;35.90;;;;;;5026227;28;20556;-62
2022/04/29 03:33:15;;;;;;;8.63;4.93;;;21.90;35.90;;;;;;5026410;28;20119;-61
2022/04/29 03:35:44;;;;;;;7.13;5.40;;;21.90;36.00;;;;;;5026507;28;20040;-62
2022/04/29 03:38:18;;;;;;;6.05;5.43;;;21.90;35.90;;;;;;5026269;28;20159;-61
2022/04/29 03:40:45;;;;;;;8.77;5.68;;;21.90;35.90;;;;;;5026400;28;20080;-62
2022/04/29 03:43:13;;;;;;;8.15;5.25;;;21.90;35.90;;;;;;5025242;28;20153;-61
2022/04/29 03:45:45;;;;;;;9.82;5.63;;;21.80;35.90;;;;;;5027583;28;20052;-63
2022/04/29 03:48:15;;;;;;;8.88;5.20;;;21.80;35.80;;;;;;5011340;28;20037;-61
2022/04/29 03:50:44;;;;;;;11.20;6.63;;;21.80;35.90;;;;;;5039167;28;20048;-62
2022/04/29 03:53:13;;;;;;;9.07;5.47;;;21.80;36.00;;;;;;5035604;28;20088;-61
2022/04/29 03:55:49;;;;;;;9.70;6.32;;;21.70;36.00;;;;;;5019566;28;20122;-62
2022/04/29 03:58:16;;;;;;;9.52;6.82;;;21.70;36.00;;;;;;5009804;28;20099;-62
2022/04/29 04:00:49;;;;;;;9.48;6.32;;;21.70;36.00;;;;;;5022843;28;20549;-62
2022/04/29 04:03:28;;;;;;;6.85;5.57;;;21.70;36.10;;;;;;5043176;28;20049;-62
2022/04/29 04:08:46;;;;;;;8.23;5.72;;;21.70;36.10;;;;;;5013540;28;20084;-62
2022/04/29 04:11:15;;;;;;;10.13;6.88;;;21.70;36.40;;;;;;5019347;28;20040;-63
2022/04/29 04:13:42;;;;;;;11.23;7.15;;;21.70;36.10;;;;;;5024410;28;20045;-62
2022/04/29 04:16:24;;;;;;;8.90;6.55;;;21.70;36.40;;;;;;5024679;28;20119;-62
2022/04/29 04:18:51;;;;;;;8.77;6.00;;;21.70;36.50;;;;;;5009084;28;20060;-62
2022/04/29 04:21:18;;;;;;;11.00;6.90;;;21.70;36.40;;;;;;5024263;28;20045;-62
2022/04/29 04:23:46;;;;;;;11.38;5.82;;;21.70;36.30;;;;;;5021681;28;20045;-62
2022/04/29 04:26:14;;;;;;;8.00;5.30;;;21.70;36.30;;;;;;5035141;28;20048;-63
2022/04/29 04:28:42;;;;;;;8.68;5.50;;;21.70;36.30;;;;;;5024655;28;20063;-64
2022/04/29 04:31:09;;;;;;;7.28;6.45;;;21.60;36.30;;;;;;5013361;28;20128;-64
2022/04/29 04:33:43;;;;;;;13.35;6.97;;;21.70;36.40;;;;;;5026201;28;20095;-64
2022/04/29 04:36:10;;;;;;;10.90;7.55;;;21.60;36.30;;;;;;5013218;28;20679;-64
2022/04/29 04:38:37;;;;;;;8.60;6.22;;;21.60;36.40;;;;;;5021493;28;20057;-63
2022/04/29 04:41:16;;;;;;;14.20;6.65;;;21.60;36.40;;;;;;5020036;28;20091;-63
2022/04/29 04:43:45;;;;;;;12.38;7.45;;;21.60;36.60;;;;;;5024677;28;20060;-61
2022/04/29 04:46:13;;;;;;;7.85;6.18;;;21.60;36.40;;;;;;5021029;28;20402;-64
2022/04/29 04:48:41;;;;;;;11.25;5.85;;;21.60;36.40;;;;;;5043074;28;20045;-64
2022/04/29 04:51:08;;;;;;;9.13;5.85;;;21.60;36.40;;;;;;5036034;28;20045;-64
2022/04/29 04:53:38;;;;;;;6.00;5.40;;;21.60;36.40;;;;;;5013190;28;20056;-61
2022/04/29 04:56:06;;;;;;;11.32;6.45;;;21.60;36.40;;;;;;5015190;28;20795;-64
2022/04/29 04:58:34;;;;;;;11.57;5.95;;;21.60;36.40;;;;;;5012447;28;20446;-64
2022/04/29 05:01:03;;;;;;;10.27;6.25;;;21.60;36.40;;;;;;5023704;28;20172;-63
2022/04/29 05:03:50;;;;;;;9.75;5.63;;;21.60;36.40;;;;;;5042750;28;20175;-63
2022/04/29 05:06:36;;;;;;;8.93;6.65;;;21.60;36.50;;;;;;5041719;28;20033;-64
2022/04/29 05:09:04;;;;;;;10.60;7.03;;;21.50;36.40;;;;;;5022568;28;20043;-65
2022/04/29 05:11:33;;;;;;;7.38;6.32;;;21.50;36.50;;;;;;5020884;28;20595;-63
2022/04/29 05:14:01;;;;;;;14.18;6.95;;;21.50;36.50;;;;;;5018423;28;20828;-63
2022/04/29 05:16:34;;;;;;;6.70;5.78;;;21.50;36.50;;;;;;5021194;28;20040;-64
2022/04/29 05:19:19;;;;;;;10.75;6.90;;;21.50;36.50;;;;;;5036686;28;20048;-65
2022/04/29 05:21:47;;;;;;;8.70;6.13;;;21.50;36.50;;;;;;5024856;28;20846;-65
2022/04/29 05:24:14;;;;;;;11.32;5.30;;;21.40;36.40;;;;;;5036834;28;20092;-65
2022/04/29 05:27:10;;;;;;;12.70;6.53;;;21.50;36.50;;;;;;5022707;28;20059;-64
2022/04/29 05:30:12;;;;;;;7.82;5.90;;;21.40;36.30;;;;;;4998071;28;20062;-64
2022/04/29 05:33:12;;;;;;;7.13;5.95;;;21.50;36.50;;;;;;4919058;29;20854;-63
2022/04/29 05:35:59;;;;;;;9.20;5.53;;;21.50;36.40;;;;;;4922009;29;20716;-63
2022/04/29 05:44:02;;;;;;;9.02;6.00;;;21.40;36.30;;;;;;4841133;29;20045;-63
2022/04/29 05:46:28;;;;;;;8.90;7.72;;;21.50;36.40;;;;;;4823099;29;20049;-63
2022/04/29 05:48:57;;;;;;;6.95;5.57;;;21.50;36.30;;;;;;4841511;29;20049;-63
2022/04/29 05:51:25;;;;;;;11.13;5.70;;;21.50;36.30;;;;;;4831124;29;20570;-64
2022/04/29 05:53:52;;;;;;;7.07;6.15;;;21.50;36.10;;;;;;4837995;29;20050;-63
2022/04/29 05:56:19;;;;;;;10.52;5.93;;;21.50;36.00;;;;;;4821769;29;20426;-65
2022/04/29 05:58:46;;;;;;;7.97;6.70;;;21.50;35.90;;;;;;4823621;29;20057;-64
2022/04/29 06:01:40;;;;;;;14.93;5.25;;;21.50;35.90;;;;;;4839206;29;20790;-65
2022/04/29 06:04:08;;;;;;;8.63;5.45;;;21.40;35.90;;;;;;4838595;29;20054;-63
2022/04/29 06:06:37;;;;;;;12.25;6.03;;;21.40;35.90;;;;;;4841717;29;20304;-63
2022/04/29 06:09:04;;;;;;;11.57;6.38;;;21.50;35.90;;;;;;4901001;29;20558;-64
2022/04/29 06:11:32;;;;;;;11.68;5.45;;;21.50;35.90;;;;;;4915744;29;20079;-65
2022/04/29 06:14:01;;;;;;;8.27;4.07;;;21.50;36.00;;;;;;4909640;29;20050;-65
2022/04/29 06:16:46;;;;;;;12.73;5.70;;;21.50;36.40;;;;;;4927477;29;20165;-64
2022/04/29 06:19:35;;;;;;;10.40;6.35;;;21.50;36.20;;;;;;5027296;28;20067;-65
2022/04/29 06:22:25;;;;;;;13.80;5.13;;;21.50;36.00;;;;;;5023827;28;20053;-64
2022/04/29 06:24:53;;;;;;;11.05;5.82;;;21.50;36.10;;;;;;5018891;28;20040;-64
2022/04/29 06:27:20;;;;;;;16.90;7.68;;;21.60;36.00;;;;;;5023556;28;20049;-63
2022/04/29 06:29:48;;;;;;;13.40;4.80;;;21.60;35.80;;;;;;5039753;28;20048;-63
2022/04/29 06:32:16;;;;;;;13.15;6.40;;;21.60;35.70;;;;;;5020402;28;20060;-64
2022/04/29 06:35:06;;;;;;;7.88;3.80;;;21.60;35.60;;;;;;5034905;28;20049;-64
2022/04/29 06:37:34;;;;;;;9.40;5.93;;;21.60;36.40;;;;;;5021835;28;20037;-64
2022/04/29 06:40:24;;;;;;;10.27;5.20;;;21.60;35.90;;;;;;5012596;28;20045;-63
2022/04/29 06:42:56;;;;;;;11.23;5.15;;;21.60;35.80;;;;;;5019289;28;20044;-63
2022/04/29 06:45:42;;;;;;;7.75;5.22;;;21.70;35.80;;;;;;5036484;28;20037;-64
2022/04/29 06:48:28;;;;;;;10.98;5.28;;;21.60;35.70;;;;;;5041717;28;20041;-63
2022/04/29 06:51:02;;;;;;;8.13;6.50;;;21.70;36.00;;;;;;5037624;28;20044;-62
2022/04/29 06:53:47;;;;;;;7.18;5.10;;;21.70;36.30;;;;;;5025084;28;20684;-63
2022/04/29 06:56:19;;;;;;;14.90;6.93;;;21.70;36.30;;;;;;5024371;28;20041;-64
2022/04/29 06:58:47;;;;;;;16.90;6.65;;;21.70;36.40;;;;;;5043813;28;20141;-63
2022/04/29 07:01:14;;;;;;;17.60;8.25;;;21.70;36.30;;;;;;5025818;28;20041;-62
2022/04/29 07:03:43;;;;;;;17.25;7.43;;;21.70;36.20;;;;;;5027350;28;20127;-62
2022/04/29 07:06:13;;;;;;;9.57;6.10;;;21.70;36.20;;;;;;5042676;28;20045;-62
2022/04/29 07:08:41;;;;;;;12.43;6.65;;;21.70;36.20;;;;;;5018064;28;20047;-62
2022/04/29 07:11:29;;;;;;;11.85;5.97;;;21.80;36.20;;;;;;5037769;28;20056;-62
2022/04/29 07:14:07;;;;;;;7.25;6.35;;;21.80;36.20;;;;;;5021853;28;20049;-61
2022/04/29 07:16:53;;;;;;;17.67;8.18;;;21.80;36.20;;;;;;5020329;28;20037;-61
2022/04/29 07:19:40;;;;;;;33.20;7.88;;;21.80;36.00;;;;;;5022008;28;20045;-61
2022/04/29 07:22:09;;;;;;;13.00;6.60;;;21.80;36.10;;;;;;5006382;28;20045;-60
2022/04/29 07:24:43;;;;;;;14.90;7.75;;;21.90;36.50;;;;;;5026973;28;20045;-59
2022/04/29 07:27:10;;;;;;;19.60;7.38;;;22.00;36.60;;;;;;5043841;28;20045;-63
2022/04/29 07:29:38;;;;;;;11.40;6.97;;;22.10;36.60;;;;;;5026073;28;20489;-54
2022/04/29 07:32:13;;;;;;;14.95;6.38;;;22.30;36.70;;;;;;5018088;28;20057;-59
2022/04/29 07:43:48;;;;;;;;;;;22.60;36.10;;;;;;5023644;28;20082;-56
2022/04/29 07:46:16;;;;;;;12.68;7.25;;;22.60;36.00;;;;;;5009218;28;19932;-62
2022/04/29 07:49:01;;;;;;;20.58;7.00;;;22.70;36.00;;;;;;5033106;28;20044;-64
2022/04/29 07:51:28;;;;;;;10.60;7.13;;;22.80;35.70;;;;;;5032729;28;20037;-60
2022/04/29 07:53:57;;;;;;;13.65;8.23;;;22.80;35.60;;;;;;5047631;28;20041;-60
2022/04/29 07:56:24;;;;;;;12.55;8.02;;;22.80;35.70;;;;;;5029952;28;20037;-67
2022/04/29 07:58:55;;;;;;;10.27;7.00;;;22.80;35.80;;;;;;5028228;28;20051;-67
2022/04/29 08:01:23;;;;;;;10.52;7.75;;;22.80;35.70;;;;;;5022126;28;20037;-62
2022/04/29 08:03:50;;;;;;;10.80;7.97;;;22.90;35.70;;;;;;5029396;28;20075;-57
2022/04/29 08:06:20;;;;;;;10.70;7.55;;;22.90;35.60;;;;;;5047738;28;20045;-56
2022/04/29 08:08:48;;;;;;;13.00;8.45;;;23.00;35.70;;;;;;5029512;28;20185;-62
2022/04/29 08:11:18;;;;;;;16.10;7.85;;;23.00;35.60;;;;;;5029118;28;20123;-58
2022/04/29 08:14:12;;;;;;;11.88;7.05;;;23.10;35.50;;;;;;4966290;28;20109;-72
2022/04/29 08:16:58;;;;;;;14.60;7.10;;;23.10;35.50;;;;;;4959710;28;20050;-57
2022/04/29 08:19:33;;;;;;;14.38;8.02;;;23.20;35.50;;;;;;4944792;28;20064;-58
2022/04/29 08:22:15;;;;;;;13.07;7.80;;;23.30;35.40;;;;;;4959355;28;20125;-56
2022/04/29 08:24:42;;;;;;;15.35;8.02;;;23.40;35.30;;;;;;4951193;28;20061;-65
2022/04/29 08:27:12;;;;;;;15.02;7.38;;;23.40;35.10;;;;;;4943419;28;20065;-60
2022/04/29 08:29:39;;;;;;;16.10;7.43;;;23.50;35.00;;;;;;4942967;28;20061;-61
2022/04/29 08:32:08;;;;;;;10.82;7.50;;;23.60;35.10;;;;;;4945773;28;20770;-61
2022/04/29 08:34:39;;;;;;;14.02;7.60;;;23.60;35.00;;;;;;4963830;28;20181;-71
2022/04/29 08:37:07;;;;;;;10.68;7.85;;;23.70;35.00;;;;;;4969967;28;20046;-66
2022/04/29 08:39:41;;;;;;;12.18;8.10;;;23.70;34.80;;;;;;4946996;28;20054;-61
2022/04/29 08:42:10;;;;;;;11.68;7.63;;;23.80;34.80;;;;;;4961079;28;20058;-62
2022/04/29 08:44:41;;;;;;;12.77;7.88;;;23.80;34.80;;;;;;4961449;28;20066;-64
2022/04/29 08:47:30;;;;;;;11.70;8.25;;;23.90;34.70;;;;;;4920791;29;20051;-65
2022/04/29 08:50:02;;;;;;;14.50;9.40;;;23.90;34.70;;;;;;4926349;28;20052;-65
2022/04/29 08:52:30;;;;;;;10.93;8.85;;;24.00;34.70;;;;;;4992646;28;20389;-62
2022/04/29 09:00:31;;;;;;;13.60;8.05;;;24.30;34.50;;;;;;4985080;28;20104;-57
2022/04/29 09:03:00;;;;;;;12.82;9.38;;;24.30;34.40;;;;;;4992343;28;20049;-72
2022/04/29 09:05:27;;;;;;;20.27;7.05;;;24.40;34.20;;;;;;4996980;28;20046;-58
2022/04/29 09:07:57;;;;;;;10.85;7.93;;;24.40;34.10;;;;;;5001772;28;20045;-66
2022/04/29 09:10:26;;;;;;;9.95;8.13;;;24.50;34.10;;;;;;4999112;28;20133;-69
2022/04/29 09:12:55;;;;;;;13.65;8.15;;;24.50;34.00;;;;;;4996453;28;20081;-68
2022/04/29 09:15:23;;;;;;;11.15;8.15;;;24.60;34.00;;;;;;4991578;28;20141;-55
2022/04/29 09:17:53;;;;;;;16.95;7.40;;;24.70;33.90;;;;;;4992758;28;20145;-61
2022/04/29 09:20:21;;;;;;;12.73;7.65;;;24.80;33.90;;;;;;4998847;28;20100;-65
2022/04/29 09:22:50;;;;;;;7.95;7.15;;;24.90;33.70;;;;;;4997115;28;20106;-64
2022/04/29 09:25:38;;;;;;;14.27;7.72;;;24.90;33.60;;;;;;5020950;28;20413;-57
2022/04/29 09:28:28;;;;;;;7.85;6.22;;;25.00;33.50;;;;;;4965226;28;20142;-54
2022/04/29 09:31:14;;;;;;;10.35;7.55;;;25.00;33.40;;;;;;4963017;28;20054;-53
2022/04/29 09:33:56;;;;;;;15.50;8.00;;;25.10;33.20;;;;;;4964201;28;20063;-51
2022/04/29 09:36:28;;;;;;;16.60;8.43;;;25.10;33.10;;;;;;4962481;28;20054;-53
2022/04/29 09:41:55;;;;;;;15.15;7.07;;;25.20;33.00;;;;;;4960390;28;20061;-59
2022/04/29 09:44:29;;;;;;;13.15;7.35;;;25.30;33.00;;;;;;4959049;28;20409;-57
2022/04/29 09:46:56;;;;;;;17.75;8.10;;;25.30;32.90;;;;;;4956705;28;20067;-55
2022/04/29 09:49:27;;;;;;;20.45;9.13;;;25.40;32.80;;;;;;4959307;28;20054;-64
2022/04/29 09:51:54;;;;;;;19.15;8.32;;;25.50;32.90;;;;;;4960054;28;20062;-63
2022/04/29 09:54:25;;;;;;;13.20;7.40;;;25.60;32.70;;;;;;4960304;28;20058;-63
2022/04/29 09:57:11;;;;;;;15.32;8.13;;;25.70;32.60;;;;;;4959619;28;20202;-65
2022/04/29 09:59:40;;;;;;;16.98;8.00;;;25.80;32.30;;;;;;4954776;28;20525;-64
2022/04/29 10:02:10;;;;;;;10.23;6.45;;;25.80;32.20;;;;;;4959642;28;20051;-64
2022/04/29 10:04:40;;;;;;;11.65;7.50;;;25.80;32.00;;;;;;4965941;28;20190;-64
2022/04/29 10:07:09;;;;;;;17.88;7.75;;;25.90;31.80;;;;;;5041563;28;20585;-65
2022/04/29 10:09:40;;;;;;;23.25;7.82;;;26.00;31.70;;;;;;5024903;28;20056;-63
2022/04/29 10:12:13;;;;;;;12.43;7.82;;;26.00;31.70;;;;;;5040946;28;20064;-64
2022/04/29 10:14:44;;;;;;;;;;;26.10;31.70;;;;;;5023295;28;20146;-64
2022/04/29 10:23:23;;;;;;;12.00;8.05;;;26.10;31.40;;;;;;4975387;28;20054;-64
2022/04/29 10:25:50;;;;;;;16.02;8.15;;;26.10;31.40;;;;;;4971886;28;20045;-64
2022/04/29 10:28:20;;;;;;;15.57;8.32;;;26.20;31.30;;;;;;4971765;28;20058;-57
2022/04/29 10:30:47;;;;;;;13.90;8.48;;;26.20;31.30;;;;;;4979013;28;20066;-59
2022/04/29 10:33:23;;;;;;;11.90;8.00;;;26.20;31.60;;;;;;4982345;28;20102;-61
2022/04/29 10:35:57;;;;;;;13.38;8.50;;;26.20;31.50;;;;;;4984480;28;20108;-62
2022/04/29 10:38:26;;;;;;;15.38;9.30;;;26.20;31.80;;;;;;4981767;28;20066;-69
2022/04/29 10:41:15;;;;;;;16.67;8.70;;;26.20;31.80;;;;;;4974420;28;20064;-57
2022/04/29 10:43:47;;;;;;;10.13;7.97;;;26.30;31.90;;;;;;4974761;28;20484;-56
2022/04/29 10:46:22;;;;;;;10.98;8.75;;;26.30;32.00;;;;;;4973207;28;20046;-62
2022/04/29 10:49:22;;;;;;;17.88;8.10;;;26.30;31.80;;;;;;4970769;28;20055;-67
2022/04/29 10:52:06;;;;;;;;;;;26.30;31.70;;;;;;4973693;28;20050;-53
2022/04/29 10:54:48;;;;;;;11.40;7.97;;;26.30;31.80;;;;;;5011060;28;19928;-60
2022/04/29 10:57:37;;;;;;;;;;;26.30;31.70;;;;;;5044769;28;20123;-62
2022/04/29 11:00:11;;;;;;;12.32;8.88;;;26.30;31.70;;;;;;5041938;28;20404;-57
2022/04/29 11:02:41;;;;;;;11.45;7.68;;;26.30;31.80;;;;;;5043155;28;20179;-65
2022/04/29 11:05:08;;;;;;;9.52;8.15;;;26.40;31.80;;;;;;5044750;28;20067;-63
2022/04/29 11:07:46;;;;;;;15.90;8.23;;;26.40;31.60;;;;;;5023057;28;20120;-62
2022/04/29 11:10:18;;;;;;;12.40;7.93;;;26.50;31.70;;;;;;5014962;28;20581;-60
2022/04/29 11:13:03;;;;;;;15.10;7.93;;;26.50;31.60;;;;;;5026709;28;20044;-55
2022/04/29 11:16:08;;;;;;;12.57;6.10;;;26.60;31.50;;;;;;4996631;28;20542;-54
2022/04/29 11:19:19;;;;;;;13.52;7.35;;;26.70;31.40;;;;;;4997925;28;20041;-60
2022/04/29 11:24:43;;;;;;;13.82;8.18;;;26.80;31.00;;;;;;4999745;28;20053;-63
2022/04/29 11:27:14;;;;;;;;;;;26.90;30.90;;;;;;4975508;28;20132;-61
2022/04/29 11:29:45;;;;;;;16.15;7.45;;;26.90;31.30;;;;;;5000556;28;19932;-57
2022/04/29 11:32:27;;;;;;;10.07;6.47;;;26.90;30.60;;;;;;4983388;28;20058;-57
2022/04/29 11:34:55;;;;;;;9.45;7.28;;;27.00;30.50;;;;;;5001602;28;20116;-62
2022/04/29 11:37:23;;;;;;;10.82;7.95;;;27.10;30.40;;;;;;5001124;28;20038;-66
2022/04/29 11:39:52;;;;;;;13.82;7.18;;;27.20;30.40;;;;;;5001538;28;20155;-58
2022/04/29 11:42:20;;;;;;;14.32;8.13;;;27.20;30.30;;;;;;5000309;28;20049;-52
2022/04/29 11:44:49;;;;;;;14.55;7.72;;;27.30;30.20;;;;;;5001035;28;20050;-63
2022/04/29 11:47:18;;;;;;;11.82;7.22;;;27.40;30.20;;;;;;5002065;28;20293;-63
2022/04/29 11:49:45;;;;;;;13.82;8.38;;;27.40;30.10;;;;;;5001085;28;20050;-65
2022/04/29 11:52:19;;;;;;;9.88;7.80;;;27.50;30.00;;;;;;5008364;28;20057;-66
2022/04/29 11:54:52;;;;;;;17.27;7.05;;;27.60;30.00;;;;;;5040334;28;20225;-59
2022/04/29 11:57:20;;;;;;;7.50;6.43;;;27.70;30.00;;;;;;5044150;28;20043;-60
2022/04/29 11:59:47;;;;;;;7.90;6.78;;;27.70;29.80;;;;;;5043906;28;20057;-62
2022/04/29 12:02:17;;;;;;;10.27;6.60;;;27.80;29.60;;;;;;5042411;28;20136;-57
2022/04/29 12:04:56;;;;;;;12.48;6.55;;;27.80;29.60;;;;;;5041510;28;20110;-57
2022/04/29 12:07:23;;;;;;;8.20;5.75;;;27.90;29.50;;;;;;5041620;28;20811;-58
2022/04/29 12:09:54;;;;;;;12.82;6.95;;;27.90;29.40;;;;;;5025263;28;20066;-55
2022/04/29 12:12:25;;;;;;;10.80;6.28;;;28.00;29.50;;;;;;5041895;28;20049;-59
2022/04/29 12:14:52;;;;;;;5.65;5.07;;;28.10;29.50;;;;;;5041570;28;20419;-62
2022/04/29 12:17:21;;;;;;;10.13;5.93;;;28.10;29.30;;;;;;5042746;28;20040;-60
2022/04/29 12:19:57;;;;;;;10.52;5.93;;;28.20;29.30;;;;;;5040028;28;20502;-61
2022/04/29 12:22:32;;;;;;;11.43;4.90;;;28.20;29.30;;;;;;5038794;28;20044;-59
2022/04/29 12:25:19;;;;;;;7.78;4.38;;;28.30;29.50;;;;;;5042553;28;20524;-60
2022/04/29 12:27:46;;;;;;;11.00;5.30;;;28.30;29.50;;;;;;5043761;28;20051;-59
2022/04/29 12:36:07;;;;;;;7.28;5.57;;;28.50;29.60;;;;;;5042706;28;20044;-59
2022/04/29 12:38:35;;;;;;;11.07;4.28;;;28.60;29.50;;;;;;5038758;28;20505;-59
2022/04/29 12:41:16;;;;;;;11.23;3.80;;;28.60;29.50;;;;;;5039391;28;20041;-52
2022/04/29 12:43:44;;;;;;;6.90;4.85;;;28.70;29.60;;;;;;5037735;28;20045;-59
2022/04/29 12:46:16;;;;;;;5.90;3.45;;;28.70;29.20;;;;;;5038754;28;20037;-57
2022/04/29 12:48:51;;;;;;;8.07;5.32;;;28.80;29.20;;;;;;5042839;28;20147;-47
2022/04/29 12:51:24;;;;;;;6.10;3.70;;;28.80;29.20;;;;;;5020352;28;20045;-61
2022/04/29 12:53:51;;;;;;;7.10;2.97;;;28.90;29.20;;;;;;5038111;28;20085;-61
2022/04/29 12:56:30;;;;;;;6.47;2.92;;;28.90;29.30;;;;;;5042511;28;20159;-57
2022/04/29 12:58:59;;;;;;;8.23;3.00;;;29.00;29.40;;;;;;5038625;28;20053;-55
2022/04/29 13:01:35;;;;;;;8.35;3.45;;;29.10;29.40;;;;;;5021632;28;20044;-61
2022/04/29 13:04:06;;;;;;;7.38;3.13;;;29.20;29.40;;;;;;5024789;28;20495;-65
2022/04/29 13:06:52;;;;;;;2.38;2.17;;;29.20;29.40;;;;;;5039466;28;20307;-59
2022/04/29 13:09:19;;;;;;;3.75;2.67;;;29.20;29.30;;;;;;5042985;28;20126;-60
2022/04/29 13:11:48;;;;;;;2.88;2.25;;;29.30;29.30;;;;;;5042801;28;20053;-61
2022/04/29 13:14:31;;;;;;;6.90;3.97;;;29.40;29.30;;;;;;5022528;28;20038;-56
2022/04/29 13:16:58;;;;;;;5.72;2.53;;;29.50;29.20;;;;;;5024624;28;20620;-53
2022/04/29 13:19:25;;;;;;;5.53;2.70;;;29.50;28.80;;;;;;5038759;28;20390;-65
2022/04/29 13:21:52;;;;;;;4.53;2.50;;;29.60;28.90;;;;;;5042104;28;20514;-52
2022/04/29 13:24:20;;;;;;;4.78;2.80;;;29.70;28.80;;;;;;5040829;28;20047;-62
2022/04/29 13:26:51;;;;;;;4.07;2.22;;;29.70;28.80;;;;;;5011946;28;20412;-59
2022/04/29 13:29:18;;;;;;;5.70;2.40;;;29.70;28.60;;;;;;5042510;28;20039;-61
2022/04/29 13:31:46;;;;;;;4.30;2.25;;;29.80;28.50;;;;;;5042229;28;20152;-61
2022/04/29 13:34:13;;;;;;;6.20;2.75;;;29.80;28.60;;;;;;5041851;28;20099;-60
2022/04/29 13:36:40;;;;;;;10.10;3.03;;;29.90;28.40;;;;;;5043776;28;20037;-57
2022/04/29 13:39:08;;;;;;;8.25;2.65;;;30.00;28.40;;;;;;5042069;28;20536;-64
2022/04/29 13:41:39;;;;;;;5.43;2.40;;;30.00;28.40;;;;;;5024543;28;20048;-70
2022/04/29 13:44:08;;;;;;;4.18;2.15;;;30.10;28.20;;;;;;5042032;28;20079;-67
2022/04/29 13:46:36;;;;;;;6.55;2.45;;;30.20;28.10;;;;;;5042647;28;20044;-74
2022/04/29 13:49:03;;;;;;;6.72;2.15;;;30.30;28.50;;;;;;5043177;28;20136;-69
2022/04/29 13:51:30;;;;;;;2.65;1.15;;;30.40;28.00;;;;;;5043553;28;20053;-68